createdAt,value
2022-07-25T00:00:46.245Z,0.00
2022-07-25T00:01:46.978Z,0.00
2022-07-25T00:02:46.245Z,0.00
2022-07-25T00:03:46.226Z,0.00
2022-07-25T00:04:46.349Z,0.00
2022-07-25T00:05:46.185Z,0.00
2022-07-25T00:06:46.187Z,0.00
2022-07-25T00:07:46.167Z,0.00
2022-07-25T00:08:46.188Z,0.00
2022-07-25T00:09:46.177Z,0.00
2022-07-25T00:10:46.178Z,0.00
2022-07-25T00:11:46.188Z,0.00
2022-07-25T00:12:46.118Z,0.00
2022-07-25T00:13:46.117Z,0.00
2022-07-25T00:14:46.169Z,0.00
2022-07-25T00:15:46.184Z,0.00
2022-07-25T00:16:46.128Z,0.00
2022-07-25T00:17:46.097Z,0.00
2022-07-25T00:18:46.068Z,0.00
2022-07-25T00:19:46.065Z,0.00
2022-07-25T00:20:46.057Z,0.00
2022-07-25T00:21:46.057Z,0.00
2022-07-25T00:22:46.018Z,0.00
2022-07-25T00:23:45.997Z,0.00
2022-07-25T00:24:46.020Z,0.00
2022-07-25T00:25:46.039Z,0.00
2022-07-25T00:26:46.299Z,0.00
2022-07-25T00:27:45.969Z,0.00
2022-07-25T00:28:45.980Z,0.00
2022-07-25T00:29:45.952Z,0.00
2022-07-25T00:30:45.986Z,0.00
2022-07-25T00:31:46.022Z,0.00
2022-07-25T00:32:45.948Z,0.00
2022-07-25T00:33:45.914Z,0.00
2022-07-25T00:34:45.888Z,0.00
2022-07-25T00:35:45.900Z,0.00
2022-07-25T00:36:45.876Z,0.00
2022-07-25T00:37:45.878Z,0.00
2022-07-25T00:38:46.289Z,0.00
2022-07-25T00:39:45.839Z,0.00
2022-07-25T00:40:45.858Z,0.00
2022-07-25T00:41:46.831Z,0.00
2022-07-25T00:42:45.835Z,0.00
2022-07-25T00:43:45.832Z,0.00
2022-07-25T00:44:45.789Z,0.00
2022-07-25T00:45:45.782Z,0.00
2022-07-25T00:46:45.856Z,0.00
2022-07-25T00:47:45.791Z,0.00
2022-07-25T00:48:45.806Z,0.00
2022-07-25T00:49:45.742Z,0.00
2022-07-25T00:50:45.761Z,0.00
2022-07-25T00:51:45.743Z,0.00
2022-07-25T00:52:46.394Z,0.00
2022-07-25T00:53:45.711Z,0.00
2022-07-25T00:54:45.682Z,0.00
2022-07-25T00:55:50.385Z,0.00
2022-07-25T00:56:45.692Z,0.00
2022-07-25T00:57:45.658Z,0.00
2022-07-25T00:58:45.670Z,0.00
2022-07-25T00:59:45.641Z,0.00
2022-07-25T01:00:45.624Z,0.00
2022-07-25T01:01:45.733Z,0.00
2022-07-25T01:02:45.824Z,0.00
2022-07-25T01:03:45.621Z,0.00
2022-07-25T01:04:45.603Z,0.00
2022-07-25T01:05:48.003Z,0.00
2022-07-25T01:06:46.574Z,0.00
2022-07-25T01:07:45.574Z,0.00
2022-07-25T01:08:45.544Z,0.00
2022-07-25T01:09:45.535Z,0.00
2022-07-25T01:10:45.534Z,0.00
2022-07-25T01:11:45.524Z,0.00
2022-07-25T01:12:45.864Z,0.00
2022-07-25T01:13:45.493Z,0.00
2022-07-25T01:14:45.472Z,0.00
2022-07-25T01:15:45.517Z,0.00
2022-07-25T01:16:45.472Z,0.00
2022-07-25T01:17:45.460Z,0.00
2022-07-25T01:18:45.473Z,0.00
2022-07-25T01:19:45.423Z,0.00
2022-07-25T01:20:45.778Z,0.00
2022-07-25T01:21:45.425Z,0.00
2022-07-25T01:22:45.406Z,0.00
2022-07-25T01:23:45.440Z,0.00
2022-07-25T01:24:45.378Z,0.00
2022-07-25T01:25:45.435Z,0.00
2022-07-25T01:26:45.845Z,0.00
2022-07-25T01:27:45.377Z,0.00
2022-07-25T01:28:45.357Z,0.00
2022-07-25T01:29:45.335Z,0.00
2022-07-25T01:30:45.373Z,0.00
2022-07-25T01:31:45.304Z,0.00
2022-07-25T01:32:45.292Z,0.00
2022-07-25T01:33:45.315Z,0.00
2022-07-25T01:34:45.275Z,0.00
2022-07-25T01:35:45.826Z,0.00
2022-07-25T01:36:45.269Z,0.00
2022-07-25T01:37:45.921Z,0.00
2022-07-25T01:38:45.248Z,0.00
2022-07-25T01:39:45.239Z,0.00
2022-07-25T01:40:45.221Z,0.00
2022-07-25T01:41:45.227Z,0.00
2022-07-25T01:42:45.208Z,0.00
2022-07-25T01:43:45.267Z,0.00
2022-07-25T01:44:45.186Z,0.00
2022-07-25T01:45:45.167Z,0.00
2022-07-25T01:46:45.202Z,0.00
2022-07-25T01:47:45.145Z,0.00
2022-07-25T01:48:45.212Z,0.00
2022-07-25T01:49:46.172Z,0.00
2022-07-25T01:50:45.142Z,0.00
2022-07-25T01:51:45.099Z,0.00
2022-07-25T01:52:45.127Z,0.00
2022-07-25T01:53:45.079Z,0.00
2022-07-25T01:54:45.066Z,0.00
2022-07-25T01:55:45.398Z,0.00
2022-07-25T01:56:46.894Z,0.00
2022-07-25T01:57:49.365Z,0.00
2022-07-25T01:58:46.049Z,0.00
2022-07-25T01:59:45.018Z,0.00
2022-07-25T02:00:45.020Z,0.00
2022-07-25T02:01:45.098Z,0.00
2022-07-25T02:02:45.010Z,0.00
2022-07-25T02:03:44.982Z,0.00
2022-07-25T02:04:45.361Z,0.00
2022-07-25T02:05:44.998Z,0.00
2022-07-25T02:06:44.941Z,0.00
2022-07-25T02:07:44.938Z,0.00
2022-07-25T02:08:44.929Z,0.00
2022-07-25T02:09:44.959Z,0.00
2022-07-25T02:10:44.909Z,0.00
2022-07-25T02:11:44.902Z,0.00
2022-07-25T02:12:44.879Z,0.00
2022-07-25T02:13:44.860Z,0.00
2022-07-25T02:14:44.890Z,0.00
2022-07-25T02:15:44.860Z,0.00
2022-07-25T02:16:44.887Z,0.00
2022-07-25T02:17:44.853Z,0.00
2022-07-25T02:18:44.876Z,0.00
2022-07-25T02:19:45.368Z,0.00
2022-07-25T02:20:45.762Z,0.00
2022-07-25T02:21:45.792Z,0.00
2022-07-25T02:22:44.792Z,0.00
2022-07-25T02:23:44.775Z,0.00
2022-07-25T02:24:44.762Z,0.00
2022-07-25T02:25:44.842Z,0.00
2022-07-25T02:26:44.752Z,0.00
2022-07-25T02:27:44.730Z,0.00
2022-07-25T02:28:44.722Z,0.00
2022-07-25T02:29:44.712Z,0.00
2022-07-25T02:30:44.748Z,0.00
2022-07-25T02:31:44.692Z,0.00
2022-07-25T02:32:44.865Z,0.00
2022-07-25T02:33:44.663Z,0.00
2022-07-25T02:34:44.655Z,0.00
2022-07-25T02:35:44.675Z,0.00
2022-07-25T02:36:44.637Z,0.00
2022-07-25T02:37:44.645Z,0.00
2022-07-25T02:38:44.924Z,0.00
2022-07-25T02:39:44.605Z,0.00
2022-07-25T02:40:44.594Z,0.00
2022-07-25T02:41:44.583Z,0.00
2022-07-25T02:42:44.563Z,0.00
2022-07-25T02:43:44.574Z,0.00
2022-07-25T02:44:44.554Z,0.00
2022-07-25T02:45:44.576Z,0.00
2022-07-25T02:46:44.539Z,0.00
2022-07-25T02:47:44.514Z,0.00
2022-07-25T02:48:44.907Z,0.00
2022-07-25T02:49:44.506Z,0.00
2022-07-25T02:50:44.545Z,0.00
2022-07-25T02:51:44.488Z,0.00
2022-07-25T02:52:44.468Z,0.00
2022-07-25T02:53:57.125Z,0.00
2022-07-25T02:54:45.445Z,0.00
2022-07-25T02:55:44.495Z,0.00
2022-07-25T02:56:44.428Z,0.00
2022-07-25T02:57:44.427Z,0.00
2022-07-25T02:58:44.428Z,0.00
2022-07-25T02:59:44.428Z,0.00
2022-07-25T03:00:44.409Z,0.00
2022-07-25T03:01:44.458Z,0.00
2022-07-25T03:02:44.369Z,0.00
2022-07-25T03:03:44.920Z,0.00
2022-07-25T03:04:44.348Z,0.00
2022-07-25T03:05:44.339Z,0.00
2022-07-25T03:06:44.316Z,0.00
2022-07-25T03:07:44.306Z,0.00
2022-07-25T03:08:44.315Z,0.00
2022-07-25T03:09:44.408Z,0.00
2022-07-25T03:10:44.296Z,0.00
2022-07-25T03:11:44.277Z,0.00
2022-07-25T03:12:44.284Z,0.00
2022-07-25T03:13:44.247Z,0.00
2022-07-25T03:14:44.259Z,0.00
2022-07-25T03:15:44.277Z,0.00
2022-07-25T03:16:44.282Z,0.00
2022-07-25T03:17:44.215Z,0.00
2022-07-25T03:18:44.209Z,0.00
2022-07-25T03:19:44.211Z,0.00
2022-07-25T03:20:44.178Z,0.00
2022-07-25T03:21:44.217Z,0.00
2022-07-25T03:22:44.847Z,0.00
2022-07-25T03:23:46.855Z,0.00
2022-07-25T03:24:45.158Z,0.00
2022-07-25T03:25:44.147Z,0.00
2022-07-25T03:26:44.087Z,0.00
2022-07-25T03:27:44.048Z,0.00
2022-07-25T03:28:44.700Z,0.00
2022-07-25T03:29:44.052Z,0.00
2022-07-25T03:30:44.130Z,0.00
2022-07-25T03:31:44.147Z,0.00
2022-07-25T03:32:44.062Z,0.00
2022-07-25T03:33:44.062Z,0.00
2022-07-25T03:34:44.044Z,0.00
2022-07-25T03:35:44.132Z,0.00
2022-07-25T03:36:44.023Z,0.00
2022-07-25T03:37:44.009Z,0.00
2022-07-25T03:38:43.955Z,0.00
2022-07-25T03:39:43.931Z,0.00
2022-07-25T03:40:43.999Z,0.00
2022-07-25T03:41:43.929Z,0.00
2022-07-25T03:42:43.890Z,0.00
2022-07-25T03:43:43.949Z,0.00
2022-07-25T03:44:43.939Z,0.00
2022-07-25T03:45:44.010Z,0.00
2022-07-25T03:46:43.875Z,0.00
2022-07-25T03:47:43.892Z,0.00
2022-07-25T03:48:43.905Z,0.00
2022-07-25T03:49:43.843Z,0.00
2022-07-25T03:50:43.823Z,0.00
2022-07-25T03:51:43.825Z,0.00
2022-07-25T03:52:43.790Z,0.00
2022-07-25T03:53:43.831Z,0.00
2022-07-25T03:54:43.773Z,0.00
2022-07-25T03:55:43.771Z,0.00
2022-07-25T03:56:44.253Z,0.00
2022-07-25T03:57:43.743Z,0.00
2022-07-25T03:58:43.747Z,0.00
2022-07-25T03:59:43.753Z,0.00
2022-07-25T04:00:43.737Z,0.00
2022-07-25T04:01:43.711Z,0.00
2022-07-25T04:02:43.790Z,0.00
2022-07-25T04:03:43.848Z,0.00
2022-07-25T04:04:43.673Z,0.00
2022-07-25T04:05:47.371Z,0.00
2022-07-25T04:06:43.654Z,0.00
2022-07-25T04:07:43.653Z,0.00
2022-07-25T04:08:43.636Z,0.00
2022-07-25T04:09:43.645Z,0.00
2022-07-25T04:10:43.665Z,0.00
2022-07-25T04:11:43.616Z,0.00
2022-07-25T04:12:43.605Z,0.00
2022-07-25T04:13:43.590Z,0.00
2022-07-25T04:14:43.575Z,0.00
2022-07-25T04:15:43.625Z,0.00
2022-07-25T04:17:40.246Z,0.00
2022-07-25T04:18:40.226Z,0.00
2022-07-25T04:19:40.207Z,0.00
2022-07-25T04:20:40.243Z,0.00
2022-07-25T04:21:40.206Z,0.00
2022-07-25T04:22:44.831Z,0.00
2022-07-25T04:23:41.193Z,0.00
2022-07-25T04:24:40.194Z,0.00
2022-07-25T04:25:40.152Z,0.00
2022-07-25T04:26:40.134Z,0.00
2022-07-25T04:27:40.146Z,0.00
2022-07-25T04:28:40.125Z,0.00
2022-07-25T04:29:40.123Z,0.00
2022-07-25T04:30:40.105Z,0.00
2022-07-25T04:31:40.176Z,0.00
2022-07-25T04:32:40.097Z,0.00
2022-07-25T04:33:40.086Z,0.00
2022-07-25T04:34:40.066Z,0.00
2022-07-25T04:35:40.726Z,0.00
2022-07-25T04:36:40.047Z,0.00
2022-07-25T04:37:40.118Z,0.00
2022-07-25T04:38:40.017Z,0.00
2022-07-25T04:39:40.024Z,0.00
2022-07-25T04:40:40.002Z,0.00
2022-07-25T04:41:40.030Z,0.00
2022-07-25T04:42:40.928Z,0.00
2022-07-25T04:43:43.582Z,0.00
2022-07-25T04:44:40.967Z,0.00
2022-07-25T04:45:40.022Z,0.00
2022-07-25T04:46:39.948Z,0.00
2022-07-25T04:47:39.939Z,0.00
2022-07-25T04:48:39.950Z,0.00
2022-07-25T04:49:39.929Z,0.00
2022-07-25T04:50:39.927Z,0.00
2022-07-25T04:51:39.899Z,0.00
2022-07-25T04:52:39.885Z,0.00
2022-07-25T04:53:39.857Z,0.00
2022-07-25T04:54:39.874Z,0.00
2022-07-25T04:55:39.868Z,0.00
2022-07-25T04:56:39.880Z,0.00
2022-07-25T04:57:39.830Z,0.00
2022-07-25T04:58:39.829Z,5.62
2022-07-25T04:59:39.819Z,11.25
2022-07-25T05:00:39.883Z,39.38
2022-07-25T05:01:39.980Z,73.12
2022-07-25T05:02:39.884Z,95.62
2022-07-25T05:03:39.757Z,101.25
2022-07-25T05:04:44.905Z,106.88
2022-07-25T05:05:40.739Z,101.25
2022-07-25T05:06:39.778Z,61.88
2022-07-25T05:07:39.747Z,22.50
2022-07-25T05:08:39.727Z,11.25
2022-07-25T05:09:39.699Z,11.25
2022-07-25T05:10:39.714Z,11.25
2022-07-25T05:11:42.550Z,11.25
2022-07-25T05:12:40.681Z,11.25
2022-07-25T05:13:39.724Z,11.25
2022-07-25T05:14:39.674Z,11.25
2022-07-25T05:15:39.661Z,11.25
2022-07-25T05:16:39.742Z,11.25
2022-07-25T05:17:39.631Z,11.25
2022-07-25T05:18:39.619Z,11.25
2022-07-25T05:19:39.600Z,11.25
2022-07-25T05:20:41.250Z,11.25
2022-07-25T05:21:39.580Z,11.25
2022-07-25T05:22:39.588Z,11.25
2022-07-25T05:23:39.581Z,11.25
2022-07-25T05:24:39.598Z,11.25
2022-07-25T05:25:39.552Z,11.25
2022-07-25T05:26:39.562Z,11.25
2022-07-25T05:27:39.573Z,11.25
2022-07-25T05:28:39.524Z,11.25
2022-07-25T05:29:39.513Z,11.25
2022-07-25T05:30:40.160Z,11.25
2022-07-25T05:31:39.523Z,11.25
2022-07-25T05:32:39.496Z,11.25
2022-07-25T05:33:39.469Z,11.25
2022-07-25T05:34:39.474Z,11.25
2022-07-25T05:35:39.464Z,11.25
2022-07-25T05:36:42.014Z,11.25
2022-07-25T05:37:39.442Z,11.25
2022-07-25T05:38:39.443Z,11.25
2022-07-25T05:39:39.411Z,11.25
2022-07-25T05:40:39.406Z,5.62
2022-07-25T05:41:39.394Z,0.00
2022-07-25T05:42:39.414Z,0.00
2022-07-25T05:43:39.403Z,0.00
2022-07-25T05:44:39.374Z,0.00
2022-07-25T05:45:39.379Z,0.00
2022-07-25T05:46:39.446Z,0.00
2022-07-25T05:47:39.376Z,0.00
2022-07-25T05:48:39.384Z,0.00
2022-07-25T05:49:39.314Z,0.00
2022-07-25T05:50:39.303Z,0.00
2022-07-25T05:51:39.303Z,0.00
2022-07-25T05:52:39.264Z,0.00
2022-07-25T05:53:39.295Z,0.00
2022-07-25T05:54:39.269Z,0.00
2022-07-25T05:55:40.712Z,0.00
2022-07-25T05:56:39.253Z,0.00
2022-07-25T05:57:39.226Z,0.00
2022-07-25T05:58:39.204Z,0.00
2022-07-25T05:59:39.256Z,0.00
2022-07-25T06:00:39.184Z,0.00
2022-07-25T06:01:39.255Z,0.00
2022-07-25T06:02:39.344Z,0.00
2022-07-25T06:03:39.165Z,0.00
2022-07-25T06:04:39.165Z,0.00
2022-07-25T06:05:39.166Z,0.00
2022-07-25T06:06:39.139Z,0.00
2022-07-25T06:07:39.128Z,0.00
2022-07-25T06:08:39.129Z,0.00
2022-07-25T06:09:39.117Z,0.00
2022-07-25T06:10:39.107Z,0.00
2022-07-25T06:11:54.638Z,0.00
2022-07-25T06:12:40.067Z,0.00
2022-07-25T06:13:39.086Z,0.00
2022-07-25T06:14:39.086Z,0.00
2022-07-25T06:15:39.037Z,0.00
2022-07-25T06:16:39.091Z,0.00
2022-07-25T06:17:39.036Z,0.00
2022-07-25T06:18:39.047Z,0.00
2022-07-25T06:19:39.018Z,0.00
2022-07-25T06:20:39.027Z,0.00
2022-07-25T06:21:38.978Z,0.00
2022-07-25T06:22:38.981Z,0.00
2022-07-25T06:23:38.979Z,0.00
2022-07-25T06:24:38.980Z,0.00
2022-07-25T06:25:38.950Z,0.00
2022-07-25T06:26:38.939Z,0.00
2022-07-25T06:27:38.932Z,0.00
2022-07-25T06:28:38.920Z,0.00
2022-07-25T06:29:38.910Z,0.00
2022-07-25T06:30:39.349Z,0.00
2022-07-25T06:31:38.911Z,0.00
2022-07-25T06:32:38.878Z,0.00
2022-07-25T06:33:38.859Z,0.00
2022-07-25T06:34:38.851Z,0.00
2022-07-25T06:35:38.840Z,0.00
2022-07-25T06:36:38.886Z,0.00
2022-07-25T06:37:38.820Z,0.00
2022-07-25T06:38:38.838Z,0.00
2022-07-25T06:39:42.538Z,0.00
2022-07-25T06:40:39.841Z,0.00
2022-07-25T06:41:38.800Z,0.00
2022-07-25T06:42:38.791Z,0.00
2022-07-25T06:43:38.792Z,0.00
2022-07-25T06:44:38.776Z,0.00
2022-07-25T06:45:38.797Z,0.00
2022-07-25T06:46:38.813Z,0.00
2022-07-25T06:47:38.723Z,0.00
2022-07-25T06:48:38.783Z,0.00
2022-07-25T06:49:38.705Z,0.00
2022-07-25T06:50:38.711Z,0.00
2022-07-25T06:51:38.712Z,0.00
2022-07-25T06:52:38.671Z,0.00
2022-07-25T06:53:38.667Z,0.00
2022-07-25T06:54:38.701Z,0.00
2022-07-25T06:55:43.444Z,0.00
2022-07-25T06:56:38.646Z,0.00
2022-07-25T06:57:38.625Z,0.00
2022-07-25T06:58:38.621Z,0.00
2022-07-25T06:59:38.620Z,0.00
2022-07-25T07:00:38.683Z,0.00
2022-07-25T07:01:38.627Z,0.00
2022-07-25T07:02:38.584Z,0.00
2022-07-25T07:03:38.622Z,0.00
2022-07-25T07:04:38.556Z,0.00
2022-07-25T07:05:40.274Z,0.00
2022-07-25T07:06:38.535Z,0.00
2022-07-25T07:07:38.545Z,0.00
2022-07-25T07:08:38.523Z,0.00
2022-07-25T07:09:38.503Z,0.00
2022-07-25T07:10:38.524Z,0.00
2022-07-25T07:11:38.541Z,0.00
2022-07-25T07:12:38.474Z,0.00
2022-07-25T07:13:38.504Z,0.00
2022-07-25T07:14:38.454Z,0.00
2022-07-25T07:15:38.484Z,0.00
2022-07-25T07:16:38.510Z,0.00
2022-07-25T07:17:38.442Z,0.00
2022-07-25T07:18:38.437Z,0.00
2022-07-25T07:19:38.406Z,0.00
2022-07-25T07:20:40.096Z,0.00
2022-07-25T07:21:38.386Z,0.00
2022-07-25T07:22:38.384Z,0.00
2022-07-25T07:23:38.365Z,0.00
2022-07-25T07:24:44.271Z,0.00
2022-07-25T07:25:40.366Z,0.00
2022-07-25T07:26:38.400Z,0.00
2022-07-25T07:27:38.315Z,0.00
2022-07-25T07:28:38.317Z,0.00
2022-07-25T07:29:38.314Z,0.00
2022-07-25T07:31:13.579Z,0.00
2022-07-25T07:31:39.361Z,0.00
2022-07-25T07:32:38.279Z,0.00
2022-07-25T07:33:38.299Z,0.00
2022-07-25T07:34:38.257Z,0.00
2022-07-25T07:35:38.258Z,0.00
2022-07-25T07:36:38.238Z,0.00
2022-07-25T07:37:43.238Z,0.00
2022-07-25T07:38:39.219Z,0.00
2022-07-25T07:39:38.225Z,0.00
2022-07-25T07:40:38.196Z,0.00
2022-07-25T07:41:38.226Z,0.00
2022-07-25T07:42:38.227Z,0.00
2022-07-25T07:43:38.187Z,0.00
2022-07-25T07:44:39.117Z,0.00
2022-07-25T07:45:38.139Z,0.00
2022-07-25T07:46:38.237Z,0.00
2022-07-25T07:47:38.136Z,0.00
2022-07-25T07:48:38.208Z,0.00
2022-07-25T07:49:38.126Z,0.00
2022-07-25T07:50:38.113Z,0.00
2022-07-25T07:51:38.100Z,0.00
2022-07-25T07:52:38.171Z,0.00
2022-07-25T07:53:38.130Z,0.00
2022-07-25T07:54:38.071Z,0.00
2022-07-25T07:55:38.143Z,0.00
2022-07-25T07:56:38.029Z,0.00
2022-07-25T07:57:38.030Z,0.00
2022-07-25T07:58:38.048Z,0.00
2022-07-25T07:59:38.011Z,0.00
2022-07-25T08:00:38.002Z,0.00
2022-07-25T08:01:38.463Z,0.00
2022-07-25T08:02:38.067Z,0.00
2022-07-25T08:03:38.440Z,0.00
2022-07-25T08:04:37.962Z,0.00
2022-07-25T08:05:37.982Z,0.00
2022-07-25T08:06:37.929Z,0.00
2022-07-25T08:07:37.921Z,0.00
2022-07-25T08:08:37.930Z,0.00
2022-07-25T08:09:37.910Z,0.00
2022-07-25T08:10:37.911Z,0.00
2022-07-25T08:11:37.940Z,0.00
2022-07-25T08:12:37.890Z,0.00
2022-07-25T08:13:37.912Z,0.00
2022-07-25T08:14:37.877Z,0.00
2022-07-25T08:15:37.907Z,0.00
2022-07-25T08:16:37.941Z,0.00
2022-07-25T08:17:37.854Z,0.00
2022-07-25T08:18:37.813Z,0.00
2022-07-25T08:19:37.834Z,0.00
2022-07-25T08:20:38.768Z,0.00
2022-07-25T08:21:37.805Z,0.00
2022-07-25T08:22:37.782Z,0.00
2022-07-25T08:23:37.786Z,0.00
2022-07-25T08:24:37.754Z,0.00
2022-07-25T08:25:38.013Z,0.00
2022-07-25T08:26:37.763Z,0.00
2022-07-25T08:27:37.763Z,0.00
2022-07-25T08:28:37.784Z,0.00
2022-07-25T08:29:37.706Z,0.00
2022-07-25T08:30:37.734Z,0.00
2022-07-25T08:31:37.732Z,0.00
2022-07-25T08:32:37.688Z,0.00
2022-07-25T08:33:37.683Z,0.00
2022-07-25T08:34:37.742Z,0.00
2022-07-25T08:35:37.699Z,0.00
2022-07-25T08:36:37.645Z,0.00
2022-07-25T08:37:37.633Z,0.00
2022-07-25T08:38:37.613Z,0.00
2022-07-25T08:39:37.614Z,0.00
2022-07-25T08:40:37.635Z,0.00
2022-07-25T08:41:37.614Z,0.00
2022-07-25T08:42:37.622Z,0.00
2022-07-25T08:43:37.572Z,0.00
2022-07-25T08:44:37.554Z,0.00
2022-07-25T08:45:37.574Z,0.00
2022-07-25T08:46:37.621Z,0.00
2022-07-25T08:47:37.552Z,0.00
2022-07-25T08:48:37.582Z,0.00
2022-07-25T08:49:37.557Z,0.00
2022-07-25T08:50:37.556Z,0.00
2022-07-25T08:51:37.509Z,0.00
2022-07-25T08:52:37.489Z,0.00
2022-07-25T08:53:37.486Z,0.00
2022-07-25T08:54:37.476Z,0.00
2022-07-25T08:55:37.572Z,0.00
2022-07-25T08:56:37.475Z,0.00
2022-07-25T08:57:37.456Z,0.00
2022-07-25T08:58:37.427Z,0.00
2022-07-25T08:59:37.416Z,0.00
2022-07-25T09:00:38.064Z,0.00
2022-07-25T09:01:37.439Z,0.00
2022-07-25T09:02:37.431Z,0.00
2022-07-25T09:03:37.369Z,0.00
2022-07-25T09:04:37.370Z,0.00
2022-07-25T09:05:37.372Z,0.00
2022-07-25T09:06:37.337Z,0.00
2022-07-25T09:07:37.336Z,0.00
2022-07-25T09:08:37.486Z,0.00
2022-07-25T09:09:37.319Z,0.00
2022-07-25T09:10:37.310Z,0.00
2022-07-25T09:11:37.300Z,0.00
2022-07-25T09:12:37.331Z,0.00
2022-07-25T09:13:37.300Z,0.00
2022-07-25T09:14:37.270Z,0.00
2022-07-25T09:15:37.314Z,0.00
2022-07-25T09:16:39.019Z,0.00
2022-07-25T09:18:34.011Z,0.00
2022-07-25T09:19:33.987Z,0.00
2022-07-25T09:20:33.970Z,0.00
2022-07-25T09:21:33.959Z,0.00
2022-07-25T09:22:33.939Z,0.00
2022-07-25T09:23:33.939Z,0.00
2022-07-25T09:24:33.939Z,0.00
2022-07-25T09:25:33.971Z,0.00
2022-07-25T09:26:33.901Z,0.00
2022-07-25T09:27:33.904Z,0.00
2022-07-25T09:28:33.912Z,0.00
2022-07-25T09:29:33.866Z,0.00
2022-07-25T09:30:33.873Z,0.00
2022-07-25T09:31:33.915Z,0.00
2022-07-25T09:32:33.841Z,0.00
2022-07-25T09:33:33.889Z,0.00
2022-07-25T09:34:33.822Z,0.00
2022-07-25T09:35:33.826Z,0.00
2022-07-25T09:36:33.802Z,0.00
2022-07-25T09:37:33.815Z,0.00
2022-07-25T09:38:33.782Z,0.00
2022-07-25T09:39:33.791Z,0.00
2022-07-25T09:40:33.789Z,0.00
2022-07-25T09:41:33.781Z,0.00
2022-07-25T09:42:33.742Z,0.00
2022-07-25T09:43:33.763Z,0.00
2022-07-25T09:44:33.754Z,0.00
2022-07-25T09:45:33.734Z,0.00
2022-07-25T09:46:33.790Z,0.00
2022-07-25T09:47:33.742Z,0.00
2022-07-25T09:48:33.758Z,0.00
2022-07-25T09:49:33.663Z,0.00
2022-07-25T09:50:33.674Z,0.00
2022-07-25T09:51:34.301Z,0.00
2022-07-25T09:52:33.670Z,0.00
2022-07-25T09:53:33.625Z,0.00
2022-07-25T09:54:33.623Z,0.00
2022-07-25T09:55:33.610Z,0.00
2022-07-25T09:56:33.602Z,0.00
2022-07-25T09:57:33.579Z,0.00
2022-07-25T09:58:33.592Z,0.00
2022-07-25T09:59:33.583Z,0.00
2022-07-25T10:00:33.566Z,0.00
2022-07-25T10:01:33.627Z,0.00
2022-07-25T10:02:33.593Z,0.00
2022-07-25T10:03:33.953Z,0.00
2022-07-25T10:04:33.525Z,0.00
2022-07-25T10:05:33.534Z,0.00
2022-07-25T10:06:33.521Z,0.00
2022-07-25T10:07:33.502Z,0.00
2022-07-25T10:08:33.514Z,0.00
2022-07-25T10:09:33.470Z,0.00
2022-07-25T10:10:33.445Z,0.00
2022-07-25T10:11:33.442Z,0.00
2022-07-25T10:12:33.457Z,0.00
2022-07-25T10:13:33.463Z,0.00
2022-07-25T10:14:33.425Z,0.00
2022-07-25T10:15:33.405Z,0.00
2022-07-25T10:16:33.510Z,0.00
2022-07-25T10:17:33.406Z,0.00
2022-07-25T10:18:33.427Z,0.00
2022-07-25T10:19:34.060Z,0.00
2022-07-25T10:20:33.366Z,0.00
2022-07-25T10:21:33.357Z,0.00
2022-07-25T10:22:54.713Z,0.00
2022-07-25T10:23:34.346Z,0.00
2022-07-25T10:24:33.343Z,0.00
2022-07-25T10:25:33.966Z,0.00
2022-07-25T10:26:33.307Z,0.00
2022-07-25T10:27:33.297Z,0.00
2022-07-25T10:28:33.277Z,0.00
2022-07-25T10:29:33.275Z,0.00
2022-07-25T10:30:33.298Z,0.00
2022-07-25T10:31:33.267Z,0.00
2022-07-25T10:32:33.247Z,0.00
2022-07-25T10:33:34.228Z,0.00
2022-07-25T10:34:33.269Z,0.00
2022-07-25T10:35:33.238Z,0.00
2022-07-25T10:36:33.219Z,0.00
2022-07-25T10:37:33.228Z,0.00
2022-07-25T10:38:33.191Z,0.00
2022-07-25T10:39:33.171Z,0.00
2022-07-25T10:40:34.147Z,0.00
2022-07-25T10:41:33.161Z,0.00
2022-07-25T10:42:33.215Z,0.00
2022-07-25T10:43:33.125Z,0.00
2022-07-25T10:44:33.162Z,0.00
2022-07-25T10:45:37.978Z,0.00
2022-07-25T10:46:34.141Z,0.00
2022-07-25T10:47:33.112Z,0.00
2022-07-25T10:48:33.152Z,0.00
2022-07-25T10:49:33.452Z,0.00
2022-07-25T10:50:54.345Z,0.00
2022-07-25T10:51:37.094Z,0.00
2022-07-25T10:52:34.052Z,0.00
2022-07-25T10:53:33.040Z,0.00
2022-07-25T10:54:34.752Z,0.00
2022-07-25T10:55:33.052Z,0.00
2022-07-25T10:56:33.000Z,0.00
2022-07-25T10:57:32.991Z,0.00
2022-07-25T10:58:32.981Z,0.00
2022-07-25T10:59:33.149Z,0.00
2022-07-25T11:00:32.982Z,0.00
2022-07-25T11:01:33.035Z,0.00
2022-07-25T11:02:33.244Z,0.00
2022-07-25T11:03:32.951Z,0.00
2022-07-25T11:04:32.920Z,0.00
2022-07-25T11:05:32.900Z,0.00
2022-07-25T11:06:32.891Z,0.00
2022-07-25T11:07:32.932Z,0.00
2022-07-25T11:08:32.870Z,0.00
2022-07-25T11:09:32.881Z,0.00
2022-07-25T11:10:32.879Z,0.00
2022-07-25T11:11:32.860Z,0.00
2022-07-25T11:12:32.863Z,0.00
2022-07-25T11:13:32.832Z,0.00
2022-07-25T11:14:32.882Z,0.00
2022-07-25T11:15:32.852Z,0.00
2022-07-25T11:16:32.884Z,0.00
2022-07-25T11:17:32.804Z,0.00
2022-07-25T11:18:32.803Z,0.00
2022-07-25T11:19:32.795Z,0.00
2022-07-25T11:20:32.785Z,0.00
2022-07-25T11:21:32.804Z,0.00
2022-07-25T11:22:32.767Z,0.00
2022-07-25T11:23:32.781Z,0.00
2022-07-25T11:24:32.722Z,0.00
2022-07-25T11:25:32.711Z,0.00
2022-07-25T11:26:32.723Z,0.00
2022-07-25T11:27:32.687Z,0.00
2022-07-25T11:28:32.686Z,0.00
2022-07-25T11:29:32.684Z,0.00
2022-07-25T11:30:32.730Z,0.00
2022-07-25T11:31:32.739Z,0.00
2022-07-25T11:32:32.638Z,0.00
2022-07-25T11:33:32.669Z,0.00
2022-07-25T11:34:32.674Z,0.00
2022-07-25T11:35:32.652Z,0.00
2022-07-25T11:36:32.594Z,0.00
2022-07-25T11:37:32.595Z,0.00
2022-07-25T11:38:32.574Z,0.00
2022-07-25T11:39:32.615Z,0.00
2022-07-25T11:40:32.660Z,0.00
2022-07-25T11:41:32.565Z,0.00
2022-07-25T11:42:32.534Z,0.00
2022-07-25T11:43:32.533Z,0.00
2022-07-25T11:44:32.544Z,0.00
2022-07-25T11:45:32.567Z,0.00
2022-07-25T11:46:32.663Z,0.00
2022-07-25T11:47:32.519Z,0.00
2022-07-25T11:48:32.527Z,0.00
2022-07-25T11:49:32.487Z,0.00
2022-07-25T11:50:32.475Z,0.00
2022-07-25T11:51:32.524Z,0.00
2022-07-25T11:52:32.458Z,0.00
2022-07-25T11:53:32.449Z,0.00
2022-07-25T11:54:32.439Z,0.00
2022-07-25T11:55:32.429Z,0.00
2022-07-25T11:56:42.338Z,0.00
2022-07-25T11:57:33.460Z,0.00
2022-07-25T11:58:32.397Z,0.00
2022-07-25T11:59:33.337Z,0.00
2022-07-25T12:00:32.389Z,0.00
2022-07-25T12:01:32.382Z,0.00
2022-07-25T12:02:32.511Z,0.00
2022-07-25T12:03:32.426Z,0.00
2022-07-25T12:04:32.376Z,0.00
2022-07-25T12:05:32.337Z,0.00
2022-07-25T12:06:32.350Z,0.00
2022-07-25T12:07:32.318Z,0.00
2022-07-25T12:08:32.338Z,0.00
2022-07-25T12:09:32.300Z,0.00
2022-07-25T12:10:32.301Z,0.00
2022-07-25T12:11:32.270Z,0.00
2022-07-25T12:12:32.261Z,0.00
2022-07-25T12:13:32.272Z,0.00
2022-07-25T12:14:35.349Z,0.00
2022-07-25T12:15:32.238Z,0.00
2022-07-25T12:16:32.317Z,0.00
2022-07-25T12:17:32.219Z,0.00
2022-07-25T12:18:32.209Z,0.00
2022-07-25T12:19:32.306Z,0.00
2022-07-25T12:20:32.463Z,0.00
2022-07-25T12:21:32.170Z,0.00
2022-07-25T12:22:32.192Z,0.00
2022-07-25T12:23:32.186Z,0.00
2022-07-25T12:24:32.146Z,0.00
2022-07-25T12:25:32.171Z,0.00
2022-07-25T12:26:32.143Z,0.00
2022-07-25T12:27:32.158Z,0.00
2022-07-25T12:28:32.114Z,0.00
2022-07-25T12:29:32.124Z,0.00
2022-07-25T12:30:32.154Z,0.00
2022-07-25T12:31:32.321Z,0.00
2022-07-25T12:32:32.114Z,0.00
2022-07-25T12:33:32.412Z,0.00
2022-07-25T12:34:32.045Z,0.00
2022-07-25T12:35:32.076Z,0.00
2022-07-25T12:36:32.022Z,0.00
2022-07-25T12:37:32.052Z,0.00
2022-07-25T12:38:32.034Z,0.00
2022-07-25T12:39:32.018Z,0.00
2022-07-25T12:40:32.014Z,0.00
2022-07-25T12:41:32.015Z,0.00
2022-07-25T12:42:31.983Z,0.00
2022-07-25T12:43:31.986Z,0.00
2022-07-25T12:44:31.963Z,0.00
2022-07-25T12:45:32.017Z,0.00
2022-07-25T12:46:31.945Z,0.00
2022-07-25T12:47:31.983Z,0.00
2022-07-25T12:48:31.966Z,0.00
2022-07-25T12:49:31.933Z,0.00
2022-07-25T12:50:31.955Z,0.00
2022-07-25T12:51:31.902Z,0.00
2022-07-25T12:52:31.885Z,0.00
2022-07-25T12:53:31.903Z,0.00
2022-07-25T12:54:32.547Z,0.00
2022-07-25T12:55:31.886Z,0.00
2022-07-25T12:56:31.847Z,0.00
2022-07-25T12:57:31.855Z,0.00
2022-07-25T12:58:31.835Z,0.00
2022-07-25T12:59:31.827Z,0.00
2022-07-25T13:00:31.820Z,0.00
2022-07-25T13:01:31.854Z,0.00
2022-07-25T13:02:31.880Z,0.00
2022-07-25T13:03:31.798Z,0.00
2022-07-25T13:04:31.806Z,0.00
2022-07-25T13:05:31.746Z,0.00
2022-07-25T13:06:35.541Z,0.00
2022-07-25T13:07:32.736Z,0.00
2022-07-25T13:08:31.736Z,0.00
2022-07-25T13:09:32.006Z,0.00
2022-07-25T13:10:31.709Z,0.00
2022-07-25T13:11:31.754Z,0.00
2022-07-25T13:12:31.718Z,0.00
2022-07-25T13:13:31.709Z,0.00
2022-07-25T13:14:31.692Z,0.00
2022-07-25T13:15:31.669Z,0.00
2022-07-25T13:16:31.711Z,0.00
2022-07-25T13:17:31.649Z,0.00
2022-07-25T13:18:31.639Z,0.00
2022-07-25T13:19:31.676Z,0.00